Oakglen — CYDD — position and weather

sailwx.info

Track history (hours):
 
Tides and Currents Weather Stations Pressure Air Temp Water Temp Dewpoint Dewpoint Depression Visibility Wind Speed Wind Dir Waves Ship Positions

Oakglen

Last reported at 2017-Dec-25 19:55 UTC. Time now 2018-Feb-22 13:08 UTC.
Position N 45°29' W 073°31'.
Warning: this ship's position is 58 days out of date.

Length 223 m; draft 8.1 m.

Type: Cargo ship. MMSI: 316013966.

Date/timePositionNaut miles runAvg speedWind from/ knotsBaromVisibWave heightAir tempDewpointWater temp
2017-Dec-25 19:55N 45°29' W 073°31'1 0.4
2017-Dec-25 18:13N 45°28' W 073°30'1 4.4
2017-Dec-25 17:59N 45°27' W 073°30'3 5.5
2017-Dec-25 17:30N 45°25' W 073°31'2 2.3
2017-Dec-25 16:32N 45°24' W 073°34'1 0.1
2017-Dec-25 04:50N 45°24' W 073°36'1 3.3
2017-Dec-25 04:30N 45°24' W 073°38'2 3.7
2017-Dec-25 04:00N 45°25' W 073°40'2 3.7
2017-Dec-25 03:30N 45°25' W 073°43'4 7.5
2017-Dec-25 03:00N 45°24' W 073°48'5 9.1
2017-Dec-25 02:30N 45°21' W 073°53'1 2.1
2017-Dec-25 01:58N 45°20' W 073°54'0 0.0
2017-Dec-25 01:28N 45°20' W 073°54'0 0.1
2017-Dec-25 00:58N 45°20' W 073°54'0 0.1
2017-Dec-25 00:28N 45°20' W 073°54'0 0.0
2017-Dec-24 23:58N 45°20' W 073°54'0 0.1
2017-Dec-24 23:28N 45°20' W 073°54'0 0.0
2017-Dec-24 22:58N 45°20' W 073°54'0 0.1
2017-Dec-24 22:22N 45°20' W 073°54'0 0.1
2017-Dec-24 21:58N 45°20' W 073°54'0 0.2
2017-Dec-24 21:28N 45°20' W 073°54'0 0.1
2017-Dec-24 20:58N 45°20' W 073°54'0 0.1
2017-Dec-24 20:16N 45°20' W 073°54'0 0.0
2017-Dec-24 19:58N 45°20' W 073°54'0 0.1
2017-Dec-24 19:28N 45°20' W 073°54'0 0.1
2017-Dec-24 18:58N 45°20' W 073°54'0 0.1
2017-Dec-24 18:28N 45°20' W 073°54'1 1.5
2017-Dec-24 18:00N 45°20' W 073°55'1 1.2
2017-Dec-24 17:25N 45°19' W 073°55'0 0.9
2017-Dec-24 16:55N 45°19' W 073°55'0 0.8
2017-Dec-24 16:25N 45°18' W 073°56'0 0.0
2017-Dec-24 15:55N 45°18' W 073°56'0 1.0
2017-Dec-24 15:25N 45°18' W 073°56'2 4.3
2017-Dec-24 15:00N 45°16' W 073°57'4 8.9
2017-Dec-24 14:30N 45°13' W 074°02'510.1
2017-Dec-24 14:00N 45°14' W 074°09'711.0
2017-Dec-24 13:24N 45°12' W 074°18'711.7
2017-Dec-24 12:46N 45°08' W 074°27'  
2017-Dec-21 08:12N 45°30' W 083°18'412.8
2017-Dec-21 07:54N 45°33' W 083°22'512.9
2017-Dec-21 07:30N 45°37' W 083°27'612.8
2017-Dec-21 07:01N 45°41' W 083°33'612.9
2017-Dec-21 06:30N 45°46' W 083°40'  
2017-Dec-16 16:24N 45°46' W 083°43'913.1
2017-Dec-16 15:44N 45°39' W 083°36'313.1
2017-Dec-16 15:30N 45°37' W 083°33'  
Track history (hours):
 
Tides and Currents Weather Stations Pressure Air Temp Water Temp Dewpoint Dewpoint Depression Visibility Wind Speed Wind Dir Waves Ship Positions

Oakglen

Last reported at 2017-Dec-25 19:55 UTC. Time now 2018-Feb-22 13:08 UTC.
Position N 45°29' W 073°31'.
Warning: this ship's position is 58 days out of date.

Length 223 m; draft 8.1 m.

Type: Cargo ship. MMSI: 316013966.

Date/timePositionNaut miles runAvg speedWind from/ knotsBaromVisibWave heightAir tempDewpointWater temp
2017-Dec-25 19:55N 45°29' W 073°31'1 0.4
2017-Dec-25 18:13N 45°28' W 073°30'1 4.4
2017-Dec-25 17:59N 45°27' W 073°30'3 5.5
2017-Dec-25 17:30N 45°25' W 073°31'2 2.3
2017-Dec-25 16:32N 45°24' W 073°34'1 0.1
2017-Dec-25 04:50N 45°24' W 073°36'1 3.3
2017-Dec-25 04:30N 45°24' W 073°38'2 3.7
2017-Dec-25 04:00N 45°25' W 073°40'2 3.7
2017-Dec-25 03:30N 45°25' W 073°43'4 7.5
2017-Dec-25 03:00N 45°24' W 073°48'5 9.1
2017-Dec-25 02:30N 45°21' W 073°53'1 2.1
2017-Dec-25 01:58N 45°20' W 073°54'0 0.0
2017-Dec-25 01:28N 45°20' W 073°54'0 0.1
2017-Dec-25 00:58N 45°20' W 073°54'0 0.1
2017-Dec-25 00:28N 45°20' W 073°54'0 0.0
2017-Dec-24 23:58N 45°20' W 073°54'0 0.1
2017-Dec-24 23:28N 45°20' W 073°54'0 0.0
2017-Dec-24 22:58N 45°20' W 073°54'0 0.1
2017-Dec-24 22:22N 45°20' W 073°54'0 0.1
2017-Dec-24 21:58N 45°20' W 073°54'0 0.2
2017-Dec-24 21:28N 45°20' W 073°54'0 0.1
2017-Dec-24 20:58N 45°20' W 073°54'0 0.1
2017-Dec-24 20:16N 45°20' W 073°54'0 0.0
2017-Dec-24 19:58N 45°20' W 073°54'0 0.1
2017-Dec-24 19:28N 45°20' W 073°54'0 0.1
2017-Dec-24 18:58N 45°20' W 073°54'0 0.1
2017-Dec-24 18:28N 45°20' W 073°54'1 1.5
2017-Dec-24 18:00N 45°20' W 073°55'1 1.2
2017-Dec-24 17:25N 45°19' W 073°55'0 0.9
2017-Dec-24 16:55N 45°19' W 073°55'0 0.8
2017-Dec-24 16:25N 45°18' W 073°56'0 0.0
2017-Dec-24 15:55N 45°18' W 073°56'0 1.0
2017-Dec-24 15:25N 45°18' W 073°56'2 4.3
2017-Dec-24 15:00N 45°16' W 073°57'4 8.9
2017-Dec-24 14:30N 45°13' W 074°02'510.1
2017-Dec-24 14:00N 45°14' W 074°09'711.0
2017-Dec-24 13:24N 45°12' W 074°18'711.7
2017-Dec-24 12:46N 45°08' W 074°27'  
2017-Dec-21 08:12N 45°30' W 083°18'412.8
2017-Dec-21 07:54N 45°33' W 083°22'512.9
2017-Dec-21 07:30N 45°37' W 083°27'612.8
2017-Dec-21 07:01N 45°41' W 083°33'612.9
2017-Dec-21 06:30N 45°46' W 083°40'  
2017-Dec-16 16:24N 45°46' W 083°43'913.1
2017-Dec-16 15:44N 45°39' W 083°36'313.1
2017-Dec-16 15:30N 45°37' W 083°33'  

Dump ship's entire track history